sensor_id;sensor_type;location;lat;lon;timestamp;temperature;humidity
47546;DHT22;50104;52.002;4.688;2023-09-18T00:01:56;19.50;85.10
47546;DHT22;50104;52.002;4.688;2023-09-18T00:06:56;19.50;85.20
47546;DHT22;50104;52.002;4.688;2023-09-18T00:11:57;19.50;85.10
47546;DHT22;50104;52.002;4.688;2023-09-18T00:16:58;19.60;85.40
47546;DHT22;50104;52.002;4.688;2023-09-18T00:21:59;19.60;84.90
47546;DHT22;50104;52.002;4.688;2023-09-18T00:27:01;19.60;84.90
47546;DHT22;50104;52.002;4.688;2023-09-18T00:32:02;19.60;84.90
47546;DHT22;50104;52.002;4.688;2023-09-18T00:37:03;19.60;85.00
47546;DHT22;50104;52.002;4.688;2023-09-18T00:42:04;19.60;85.00
47546;DHT22;50104;52.002;4.688;2023-09-18T00:47:05;19.60;84.80
47546;DHT22;50104;52.002;4.688;2023-09-18T00:52:07;19.60;84.60
47546;DHT22;50104;52.002;4.688;2023-09-18T00:57:09;19.60;84.50
47546;DHT22;50104;52.002;4.688;2023-09-18T01:02:10;19.60;84.40
47546;DHT22;50104;52.002;4.688;2023-09-18T01:07:12;19.60;84.20
47546;DHT22;50104;52.002;4.688;2023-09-18T01:12:30;19.60;84.20
47546;DHT22;50104;52.002;4.688;2023-09-18T01:17:36;19.60;84.40
47546;DHT22;50104;52.002;4.688;2023-09-18T01:22:40;19.60;84.50
47546;DHT22;50104;52.002;4.688;2023-09-18T01:27:41;19.60;84.50
47546;DHT22;50104;52.002;4.688;2023-09-18T01:32:43;19.60;84.30
47546;DHT22;50104;52.002;4.688;2023-09-18T01:37:45;19.60;84.40
47546;DHT22;50104;52.002;4.688;2023-09-18T01:42:46;19.60;84.30
47546;DHT22;50104;52.002;4.688;2023-09-18T01:47:47;19.60;84.40
47546;DHT22;50104;52.002;4.688;2023-09-18T01:52:48;19.60;84.30
47546;DHT22;50104;52.002;4.688;2023-09-18T01:57:48;19.60;84.50
47546;DHT22;50104;52.002;4.688;2023-09-18T02:02:49;19.60;84.60
47546;DHT22;50104;52.002;4.688;2023-09-18T02:07:50;19.60;84.70
47546;DHT22;50104;52.002;4.688;2023-09-18T02:12:51;19.60;84.90
47546;DHT22;50104;52.002;4.688;2023-09-18T02:17:52;19.60;84.70
47546;DHT22;50104;52.002;4.688;2023-09-18T02:22:53;19.60;84.70
47546;DHT22;50104;52.002;4.688;2023-09-18T02:27:54;19.60;84.60
47546;DHT22;50104;52.002;4.688;2023-09-18T02:32:55;19.60;84.90
47546;DHT22;50104;52.002;4.688;2023-09-18T02:37:56;19.60;85.00
47546;DHT22;50104;52.002;4.688;2023-09-18T02:42:57;19.60;85.10
47546;DHT22;50104;52.002;4.688;2023-09-18T02:47:58;19.60;85.00
47546;DHT22;50104;52.002;4.688;2023-09-18T02:52:59;19.60;85.10
47546;DHT22;50104;52.002;4.688;2023-09-18T02:57:59;19.60;85.00
47546;DHT22;50104;52.002;4.688;2023-09-18T03:03:00;19.70;84.90
47546;DHT22;50104;52.002;4.688;2023-09-18T03:08:01;19.70;84.60
47546;DHT22;50104;52.002;4.688;2023-09-18T03:13:03;19.70;84.60
47546;DHT22;50104;52.002;4.688;2023-09-18T03:18:06;19.70;84.40
47546;DHT22;50104;52.002;4.688;2023-09-18T03:23:07;19.60;84.40
47546;DHT22;50104;52.002;4.688;2023-09-18T03:28:08;19.60;84.30
47546;DHT22;50104;52.002;4.688;2023-09-18T03:33:09;19.60;84.50
47546;DHT22;50104;52.002;4.688;2023-09-18T03:38:09;19.60;85.00
47546;DHT22;50104;52.002;4.688;2023-09-18T03:43:11;19.60;85.10
47546;DHT22;50104;52.002;4.688;2023-09-18T03:48:12;19.70;85.70
47546;DHT22;50104;52.002;4.688;2023-09-18T03:53:13;19.70;86.00
47546;DHT22;50104;52.002;4.688;2023-09-18T03:58:13;19.70;86.40
47546;DHT22;50104;52.002;4.688;2023-09-18T04:03:14;19.80;86.60
47546;DHT22;50104;52.002;4.688;2023-09-18T04:08:15;19.80;86.90
47546;DHT22;50104;52.002;4.688;2023-09-18T04:13:16;19.80;87.30
47546;DHT22;50104;52.002;4.688;2023-09-18T04:18:16;19.80;87.50
47546;DHT22;50104;52.002;4.688;2023-09-18T04:23:20;19.90;87.10
47546;DHT22;50104;52.002;4.688;2023-09-18T04:28:22;19.90;86.80
47546;DHT22;50104;52.002;4.688;2023-09-18T04:33:23;20.00;86.50
47546;DHT22;50104;52.002;4.688;2023-09-18T04:38:24;20.00;86.30
47546;DHT22;50104;52.002;4.688;2023-09-18T04:43:25;20.00;86.10
47546;DHT22;50104;52.002;4.688;2023-09-18T04:48:26;20.00;85.90
47546;DHT22;50104;52.002;4.688;2023-09-18T04:53:30;20.00;86.30
47546;DHT22;50104;52.002;4.688;2023-09-18T04:58:32;20.00;86.70
47546;DHT22;50104;52.002;4.688;2023-09-18T05:03:34;20.00;87.10
47546;DHT22;50104;52.002;4.688;2023-09-18T05:08:35;20.00;87.10
47546;DHT22;50104;52.002;4.688;2023-09-18T05:13:36;20.10;87.00
47546;DHT22;50104;52.002;4.688;2023-09-18T05:18:36;20.10;86.60
47546;DHT22;50104;52.002;4.688;2023-09-18T05:23:38;20.10;87.30
47546;DHT22;50104;52.002;4.688;2023-09-18T05:28:39;20.10;86.90
47546;DHT22;50104;52.002;4.688;2023-09-18T05:33:39;20.10;86.80
47546;DHT22;50104;52.002;4.688;2023-09-18T05:38:40;20.10;86.70
47546;DHT22;50104;52.002;4.688;2023-09-18T05:43:41;20.10;86.80
47546;DHT22;50104;52.002;4.688;2023-09-18T05:48:42;20.10;87.00
47546;DHT22;50104;52.002;4.688;2023-09-18T05:53:42;20.00;87.10
47546;DHT22;50104;52.002;4.688;2023-09-18T05:58:43;20.00;87.30
47546;DHT22;50104;52.002;4.688;2023-09-18T06:03:44;20.00;87.40
47546;DHT22;50104;52.002;4.688;2023-09-18T06:08:45;20.00;87.80
47546;DHT22;50104;52.002;4.688;2023-09-18T06:13:46;20.00;88.10
47546;DHT22;50104;52.002;4.688;2023-09-18T06:18:47;20.10;88.10
47546;DHT22;50104;52.002;4.688;2023-09-18T06:23:48;20.10;88.70
47546;DHT22;50104;52.002;4.688;2023-09-18T06:28:48;20.10;88.60
47546;DHT22;50104;52.002;4.688;2023-09-18T06:33:49;20.10;88.70
47546;DHT22;50104;52.002;4.688;2023-09-18T06:38:50;20.10;88.60
47546;DHT22;50104;52.002;4.688;2023-09-18T06:43:51;20.10;88.70
47546;DHT22;50104;52.002;4.688;2023-09-18T06:48:52;20.20;88.70
47546;DHT22;50104;52.002;4.688;2023-09-18T06:53:53;20.20;88.70
47546;DHT22;50104;52.002;4.688;2023-09-18T06:58:55;20.20;88.60
47546;DHT22;50104;52.002;4.688;2023-09-18T07:03:55;20.20;88.70
47546;DHT22;50104;52.002;4.688;2023-09-18T07:08:56;20.20;88.70
47546;DHT22;50104;52.002;4.688;2023-09-18T07:13:57;20.20;88.70
47546;DHT22;50104;52.002;4.688;2023-09-18T07:18:58;20.30;88.50
47546;DHT22;50104;52.002;4.688;2023-09-18T07:23:59;20.30;88.20
47546;DHT22;50104;52.002;4.688;2023-09-18T07:29:00;20.30;88.10
47546;DHT22;50104;52.002;4.688;2023-09-18T07:34:01;20.30;88.60
47546;DHT22;50104;52.002;4.688;2023-09-18T07:39:03;20.30;88.80
47546;DHT22;50104;52.002;4.688;2023-09-18T07:44:04;20.40;88.50
47546;DHT22;50104;52.002;4.688;2023-09-18T07:49:05;20.40;88.30
47546;DHT22;50104;52.002;4.688;2023-09-18T07:54:07;20.40;88.20
47546;DHT22;50104;52.002;4.688;2023-09-18T07:59:08;20.40;88.20
47546;DHT22;50104;52.002;4.688;2023-09-18T08:04:10;20.40;88.20
47546;DHT22;50104;52.002;4.688;2023-09-18T08:09:11;20.50;88.20
47546;DHT22;50104;52.002;4.688;2023-09-18T08:14:14;20.50;88.20
47546;DHT22;50104;52.002;4.688;2023-09-18T08:19:15;20.50;88.50
47546;DHT22;50104;52.002;4.688;2023-09-18T08:24:20;20.50;88.50
47546;DHT22;50104;52.002;4.688;2023-09-18T08:29:22;20.60;89.00
47546;DHT22;50104;52.002;4.688;2023-09-18T08:34:23;20.60;89.40
47546;DHT22;50104;52.002;4.688;2023-09-18T08:39:24;20.70;89.80
47546;DHT22;50104;52.002;4.688;2023-09-18T08:44:27;20.90;89.70
47546;DHT22;50104;52.002;4.688;2023-09-18T08:49:29;21.00;89.50
47546;DHT22;50104;52.002;4.688;2023-09-18T08:54:29;21.20;89.20
47546;DHT22;50104;52.002;4.688;2023-09-18T08:59:31;21.30;88.30
47546;DHT22;50104;52.002;4.688;2023-09-18T09:04:32;21.40;87.50
47546;DHT22;50104;52.002;4.688;2023-09-18T09:09:33;21.50;86.70
47546;DHT22;50104;52.002;4.688;2023-09-18T09:14:34;21.60;86.10
47546;DHT22;50104;52.002;4.688;2023-09-18T09:19:35;21.60;85.80
47546;DHT22;50104;52.002;4.688;2023-09-18T09:24:43;21.70;85.30
47546;DHT22;50104;52.002;4.688;2023-09-18T09:29:57;21.70;84.30
47546;DHT22;50104;52.002;4.688;2023-09-18T09:34:59;21.70;83.90
47546;DHT22;50104;52.002;4.688;2023-09-18T09:40:04;21.70;83.40
47546;DHT22;50104;52.002;4.688;2023-09-18T09:45:15;21.70;83.30
47546;DHT22;50104;52.002;4.688;2023-09-18T09:50:16;21.70;83.40
47546;DHT22;50104;52.002;4.688;2023-09-18T09:55:23;21.80;83.50
47546;DHT22;50104;52.002;4.688;2023-09-18T10:05:45;21.90;83.10
47546;DHT22;50104;52.002;4.688;2023-09-18T10:11:02;22.00;82.90
47546;DHT22;50104;52.002;4.688;2023-09-18T10:16:08;22.00;82.30
47546;DHT22;50104;52.002;4.688;2023-09-18T10:21:26;22.10;82.40
47546;DHT22;50104;52.002;4.688;2023-09-18T10:26:32;22.10;82.50
47546;DHT22;50104;52.002;4.688;2023-09-18T10:31:39;22.20;82.10
47546;DHT22;50104;52.002;4.688;2023-09-18T10:36:41;22.30;81.40
47546;DHT22;50104;52.002;4.688;2023-09-18T10:41:47;22.50;79.90
47546;DHT22;50104;52.002;4.688;2023-09-18T10:46:50;22.60;79.70
47546;DHT22;50104;52.002;4.688;2023-09-18T10:51:56;22.80;79.60
47546;DHT22;50104;52.002;4.688;2023-09-18T10:56:57;23.00;80.20
47546;DHT22;50104;52.002;4.688;2023-09-18T11:02:04;23.20;79.60
47546;DHT22;50104;52.002;4.688;2023-09-18T11:07:07;23.40;79.30
47546;DHT22;50104;52.002;4.688;2023-09-18T11:12:10;23.60;79.60
47546;DHT22;50104;52.002;4.688;2023-09-18T11:22:36;24.00;77.70
47546;DHT22;50104;52.002;4.688;2023-09-18T11:27:54;24.10;75.90
47546;DHT22;50104;52.002;4.688;2023-09-18T11:32:58;24.20;75.60
47546;DHT22;50104;52.002;4.688;2023-09-18T11:38:09;24.20;75.00
47546;DHT22;50104;52.002;4.688;2023-09-18T11:48:32;24.30;74.60
47546;DHT22;50104;52.002;4.688;2023-09-18T11:53:35;24.40;75.00
47546;DHT22;50104;52.002;4.688;2023-09-18T11:58:50;24.50;74.70
47546;DHT22;50104;52.002;4.688;2023-09-18T12:04:00;24.60;73.60
47546;DHT22;50104;52.002;4.688;2023-09-18T12:09:03;24.80;72.00
47546;DHT22;50104;52.002;4.688;2023-09-18T12:14:04;25.00;71.60
47546;DHT22;50104;52.002;4.688;2023-09-18T12:19:05;25.10;71.30
47546;DHT22;50104;52.002;4.688;2023-09-18T12:24:21;25.20;71.10
47546;DHT22;50104;52.002;4.688;2023-09-18T12:29:25;25.40;70.90
47546;DHT22;50104;52.002;4.688;2023-09-18T12:34:26;25.60;71.60
47546;DHT22;50104;52.002;4.688;2023-09-18T12:39:32;25.70;71.10
47546;DHT22;50104;52.002;4.688;2023-09-18T12:44:33;25.80;70.90
47546;DHT22;50104;52.002;4.688;2023-09-18T12:49:34;25.90;69.70
47546;DHT22;50104;52.002;4.688;2023-09-18T12:54:44;25.90;69.10
47546;DHT22;50104;52.002;4.688;2023-09-18T12:59:46;25.90;69.10
47546;DHT22;50104;52.002;4.688;2023-09-18T13:04:56;25.90;69.70
47546;DHT22;50104;52.002;4.688;2023-09-18T13:10:07;25.90;68.70
47546;DHT22;50104;52.002;4.688;2023-09-18T13:15:10;26.00;69.60
47546;DHT22;50104;52.002;4.688;2023-09-18T13:20:15;26.10;68.10
47546;DHT22;50104;52.002;4.688;2023-09-18T13:25:25;26.20;68.60
47546;DHT22;50104;52.002;4.688;2023-09-18T13:30:30;26.20;69.10
47546;DHT22;50104;52.002;4.688;2023-09-18T13:35:32;26.30;68.40
47546;DHT22;50104;52.002;4.688;2023-09-18T13:40:35;26.40;68.50
47546;DHT22;50104;52.002;4.688;2023-09-18T13:45:38;26.40;67.80
47546;DHT22;50104;52.002;4.688;2023-09-18T13:50:39;26.50;67.70
47546;DHT22;50104;52.002;4.688;2023-09-18T13:55:40;26.50;67.90
47546;DHT22;50104;52.002;4.688;2023-09-18T14:00:41;26.40;68.60
47546;DHT22;50104;52.002;4.688;2023-09-18T14:05:44;26.40;67.70
47546;DHT22;50104;52.002;4.688;2023-09-18T14:10:44;26.20;67.80
47546;DHT22;50104;52.002;4.688;2023-09-18T14:15:45;26.10;67.60
47546;DHT22;50104;52.002;4.688;2023-09-18T14:20:46;26.00;67.90
47546;DHT22;50104;52.002;4.688;2023-09-18T14:25:47;25.80;67.90
47546;DHT22;50104;52.002;4.688;2023-09-18T14:30:48;25.60;67.60
47546;DHT22;50104;52.002;4.688;2023-09-18T14:35:49;25.30;68.30
47546;DHT22;50104;52.002;4.688;2023-09-18T14:40:50;24.90;69.80
47546;DHT22;50104;52.002;4.688;2023-09-18T14:45:51;24.60;71.60
47546;DHT22;50104;52.002;4.688;2023-09-18T14:50:56;24.20;72.00
47546;DHT22;50104;52.002;4.688;2023-09-18T14:55:57;23.80;72.30
47546;DHT22;50104;52.002;4.688;2023-09-18T15:00:58;23.50;72.80
47546;DHT22;50104;52.002;4.688;2023-09-18T15:06:00;23.10;72.90
47546;DHT22;50104;52.002;4.688;2023-09-18T15:11:02;22.80;73.40
47546;DHT22;50104;52.002;4.688;2023-09-18T15:16:04;22.50;74.00
47546;DHT22;50104;52.002;4.688;2023-09-18T15:21:06;22.30;74.70
47546;DHT22;50104;52.002;4.688;2023-09-18T15:26:07;22.10;75.30
47546;DHT22;50104;52.002;4.688;2023-09-18T15:31:07;22.00;76.10
47546;DHT22;50104;52.002;4.688;2023-09-18T15:36:08;22.00;76.40
47546;DHT22;50104;52.002;4.688;2023-09-18T15:41:09;22.00;76.70
47546;DHT22;50104;52.002;4.688;2023-09-18T15:46:10;22.20;76.90
47546;DHT22;50104;52.002;4.688;2023-09-18T15:51:10;22.30;77.20
47546;DHT22;50104;52.002;4.688;2023-09-18T15:56:11;22.40;76.70
47546;DHT22;50104;52.002;4.688;2023-09-18T16:01:13;22.60;76.50
47546;DHT22;50104;52.002;4.688;2023-09-18T16:06:16;22.70;76.00
47546;DHT22;50104;52.002;4.688;2023-09-18T16:11:21;22.70;75.50
47546;DHT22;50104;52.002;4.688;2023-09-18T16:16:22;22.70;75.50
47546;DHT22;50104;52.002;4.688;2023-09-18T16:21:23;22.60;75.60
47546;DHT22;50104;52.002;4.688;2023-09-18T16:26:24;22.60;75.60
47546;DHT22;50104;52.002;4.688;2023-09-18T16:31:25;22.50;75.90
47546;DHT22;50104;52.002;4.688;2023-09-18T16:36:26;22.30;75.60
47546;DHT22;50104;52.002;4.688;2023-09-18T16:41:27;22.20;75.80
47546;DHT22;50104;52.002;4.688;2023-09-18T16:46:28;22.00;75.90
47546;DHT22;50104;52.002;4.688;2023-09-18T16:51:29;21.90;76.60
47546;DHT22;50104;52.002;4.688;2023-09-18T16:56:31;21.70;76.80
47546;DHT22;50104;52.002;4.688;2023-09-18T17:01:31;21.50;77.10
47546;DHT22;50104;52.002;4.688;2023-09-18T17:06:33;21.30;77.10
47546;DHT22;50104;52.002;4.688;2023-09-18T17:11:36;21.20;77.10
47546;DHT22;50104;52.002;4.688;2023-09-18T17:16:37;21.00;77.70
47546;DHT22;50104;52.002;4.688;2023-09-18T17:21:38;20.90;78.00
47546;DHT22;50104;52.002;4.688;2023-09-18T17:26:38;20.80;78.20
47546;DHT22;50104;52.002;4.688;2023-09-18T17:31:40;20.70;78.40
47546;DHT22;50104;52.002;4.688;2023-09-18T17:36:41;20.60;78.50
47546;DHT22;50104;52.002;4.688;2023-09-18T17:41:43;20.50;78.70
47546;DHT22;50104;52.002;4.688;2023-09-18T17:46:45;20.40;78.80
47546;DHT22;50104;52.002;4.688;2023-09-18T17:51:46;20.40;78.90
47546;DHT22;50104;52.002;4.688;2023-09-18T17:56:47;20.30;79.10
47546;DHT22;50104;52.002;4.688;2023-09-18T18:01:48;20.30;79.00
47546;DHT22;50104;52.002;4.688;2023-09-18T18:06:49;20.30;79.40
47546;DHT22;50104;52.002;4.688;2023-09-18T18:11:49;20.20;79.40
47546;DHT22;50104;52.002;4.688;2023-09-18T18:16:50;20.20;79.50
47546;DHT22;50104;52.002;4.688;2023-09-18T18:21:51;20.20;79.70
47546;DHT22;50104;52.002;4.688;2023-09-18T18:26:52;20.10;79.50
47546;DHT22;50104;52.002;4.688;2023-09-18T18:31:53;20.10;79.30
47546;DHT22;50104;52.002;4.688;2023-09-18T18:36:55;20.00;79.40
47546;DHT22;50104;52.002;4.688;2023-09-18T18:41:56;19.90;79.60
47546;DHT22;50104;52.002;4.688;2023-09-18T18:46:57;19.90;80.10
47546;DHT22;50104;52.002;4.688;2023-09-18T18:51:58;19.90;80.20
47546;DHT22;50104;52.002;4.688;2023-09-18T18:56:58;19.80;80.60
47546;DHT22;50104;52.002;4.688;2023-09-18T19:01:59;19.70;81.20
47546;DHT22;50104;52.002;4.688;2023-09-18T19:07:02;19.60;81.30
47546;DHT22;50104;52.002;4.688;2023-09-18T19:12:05;19.60;81.60
47546;DHT22;50104;52.002;4.688;2023-09-18T19:17:06;19.50;81.60
47546;DHT22;50104;52.002;4.688;2023-09-18T19:22:07;19.40;81.80
47546;DHT22;50104;52.002;4.688;2023-09-18T19:27:08;19.40;82.00
47546;DHT22;50104;52.002;4.688;2023-09-18T19:32:09;19.30;82.40
47546;DHT22;50104;52.002;4.688;2023-09-18T19:37:10;19.30;83.40
47546;DHT22;50104;52.002;4.688;2023-09-18T19:42:11;19.20;82.60
47546;DHT22;50104;52.002;4.688;2023-09-18T19:47:12;19.10;82.50
47546;DHT22;50104;52.002;4.688;2023-09-18T19:52:13;19.00;82.50
47546;DHT22;50104;52.002;4.688;2023-09-18T19:57:14;18.90;82.70
47546;DHT22;50104;52.002;4.688;2023-09-18T20:02:16;18.70;83.80
47546;DHT22;50104;52.002;4.688;2023-09-18T20:07:17;18.60;84.40
47546;DHT22;50104;52.002;4.688;2023-09-18T20:12:18;18.50;84.80
47546;DHT22;50104;52.002;4.688;2023-09-18T20:17:19;18.50;84.70
47546;DHT22;50104;52.002;4.688;2023-09-18T20:22:21;18.50;84.50
47546;DHT22;50104;52.002;4.688;2023-09-18T20:27:22;18.40;84.30
47546;DHT22;50104;52.002;4.688;2023-09-18T20:32:23;18.30;84.00
47546;DHT22;50104;52.002;4.688;2023-09-18T20:37:23;18.30;83.70
47546;DHT22;50104;52.002;4.688;2023-09-18T20:42:25;18.20;83.40
47546;DHT22;50104;52.002;4.688;2023-09-18T20:47:26;18.20;83.30
47546;DHT22;50104;52.002;4.688;2023-09-18T20:52:28;18.10;83.20
47546;DHT22;50104;52.002;4.688;2023-09-18T20:57:29;18.10;83.10
47546;DHT22;50104;52.002;4.688;2023-09-18T21:02:30;18.00;83.20
47546;DHT22;50104;52.002;4.688;2023-09-18T21:07:31;18.00;83.20
47546;DHT22;50104;52.002;4.688;2023-09-18T21:12:32;17.90;83.30
47546;DHT22;50104;52.002;4.688;2023-09-18T21:17:33;17.90;83.20
47546;DHT22;50104;52.002;4.688;2023-09-18T21:22:36;17.90;83.00
47546;DHT22;50104;52.002;4.688;2023-09-18T21:27:36;17.80;82.90
47546;DHT22;50104;52.002;4.688;2023-09-18T21:32:37;17.80;82.70
47546;DHT22;50104;52.002;4.688;2023-09-18T21:37:38;17.80;82.60
47546;DHT22;50104;52.002;4.688;2023-09-18T21:42:39;17.70;82.00
47546;DHT22;50104;52.002;4.688;2023-09-18T21:47:39;17.70;81.80
47546;DHT22;50104;52.002;4.688;2023-09-18T21:52:40;17.60;81.50
47546;DHT22;50104;52.002;4.688;2023-09-18T21:57:41;17.50;81.10
47546;DHT22;50104;52.002;4.688;2023-09-18T22:02:42;17.50;81.00
47546;DHT22;50104;52.002;4.688;2023-09-18T22:07:43;17.40;80.90
47546;DHT22;50104;52.002;4.688;2023-09-18T22:12:44;17.30;80.60
47546;DHT22;50104;52.002;4.688;2023-09-18T22:17:45;17.20;80.70
47546;DHT22;50104;52.002;4.688;2023-09-18T22:22:48;17.20;80.70
47546;DHT22;50104;52.002;4.688;2023-09-18T22:27:48;17.10;80.60
47546;DHT22;50104;52.002;4.688;2023-09-18T22:32:49;17.00;80.60
47546;DHT22;50104;52.002;4.688;2023-09-18T22:37:55;16.90;80.90
47546;DHT22;50104;52.002;4.688;2023-09-18T22:54:58;16.70;81.30
47546;DHT22;50104;52.002;4.688;2023-09-18T22:59:59;16.60;81.50
47546;DHT22;50104;52.002;4.688;2023-09-18T23:05:00;16.50;81.30
47546;DHT22;50104;52.002;4.688;2023-09-18T23:10:03;16.50;81.50
47546;DHT22;50104;52.002;4.688;2023-09-18T23:15:06;16.40;81.40
47546;DHT22;50104;52.002;4.688;2023-09-18T23:20:09;16.30;81.30
47546;DHT22;50104;52.002;4.688;2023-09-18T23:25:12;16.30;81.30
47546;DHT22;50104;52.002;4.688;2023-09-18T23:30:15;16.20;81.10
47546;DHT22;50104;52.002;4.688;2023-09-18T23:35:20;16.10;81.20
47546;DHT22;50104;52.002;4.688;2023-09-18T23:40:25;16.00;81.30
47546;DHT22;50104;52.002;4.688;2023-09-18T23:45:33;16.00;81.40
47546;DHT22;50104;52.002;4.688;2023-09-18T23:50:34;15.90;81.30
47546;DHT22;50104;52.002;4.688;2023-09-18T23:55:36;15.90;81.40
